Time;durP1;ratioP1;P1;durP2;ratioP2;P2;SDS_P1;SDS_P2;PMS_P1;PMS_P2;Temp;Humidity;BMP_temperature;BMP_pressure;BME280_temperature;BME280_humidity;BME280_pressure;Samples;Min_cycle;Max_cycle;Signal;HPM_P1;HPM_P2
2022/05/18 00:00:19;;;;;;;;;;;15.70;99.90;;;;;;5062490;28;19927;-66
2022/05/18 00:02:46;;;;;;;;;;;15.60;99.90;;;;;;5062789;28;19927;-67
2022/05/18 00:05:12;;;;;;;;;;;15.60;99.90;;;;;;5061850;28;19927;-66
2022/05/18 00:07:40;;;;;;;;;;;15.60;99.90;;;;;;5053316;28;19921;-66
2022/05/18 00:10:07;;;;;;;;;;;15.60;99.90;;;;;;5046277;28;19928;-66
2022/05/18 00:12:42;;;;;;;;;;;15.70;99.90;;;;;;5056207;28;20208;-66
2022/05/18 00:15:09;;;;;;;;;;;15.70;99.90;;;;;;5062789;28;19924;-68
2022/05/18 00:17:38;;;;;;;;;;;15.70;99.90;;;;;;5060089;28;19928;-66
2022/05/18 00:20:05;;;;;;;;;;;15.70;99.90;;;;;;5062688;28;20224;-66
2022/05/18 00:22:32;;;;;;;;;;;15.60;99.90;;;;;;5062559;28;19921;-67
2022/05/18 00:25:00;;;;;;;;;;;15.50;99.90;;;;;;5062841;28;19924;-66
2022/05/18 00:27:27;;;;;;;;;;;15.50;99.90;;;;;;5061228;28;19928;-67
2022/05/18 00:29:54;;;;;;;;;;;15.50;99.90;;;;;;5054479;28;20151;-66
2022/05/18 00:32:21;;;;;;;;;;;15.50;99.90;;;;;;5047051;28;19943;-66
2022/05/18 00:34:48;;;;;;;;;;;15.50;99.90;;;;;;5046678;28;19921;-66
2022/05/18 00:37:14;;;;;;;;;;;15.50;99.90;;;;;;5046051;28;19929;-66
2022/05/18 00:39:41;;;;;;;;;;;15.40;99.90;;;;;;5046571;28;20203;-67
2022/05/18 00:42:17;;;;;;;;;;;15.40;99.90;;;;;;5046941;28;19943;-67
2022/05/18 00:44:45;;;;;;;;;;;15.40;99.90;;;;;;5046558;28;19921;-66
2022/05/18 00:47:13;;;;;;;;;;;15.40;99.90;;;;;;5046269;28;19925;-66
2022/05/18 00:49:40;;;;;;;;;;;15.40;99.90;;;;;;5046482;28;20068;-66
2022/05/18 00:52:07;;;;;;;;;;;15.40;99.90;;;;;;5046433;28;19935;-67
2022/05/18 00:54:35;;;;;;;;;;;15.40;99.90;;;;;;5046635;28;19927;-66
2022/05/18 00:57:03;;;;;;;;;;;15.40;99.90;;;;;;5045566;28;19928;-66
2022/05/18 00:59:32;;;;;;;;;;;15.40;99.90;;;;;;5046498;28;20096;-66
2022/05/18 01:01:59;;;;;;;;;;;15.40;99.90;;;;;;5046391;28;19929;-68
2022/05/18 01:04:27;;;;;;;;;;;15.40;99.90;;;;;;5046158;28;20139;-65
2022/05/18 01:06:58;;;;;;;;;;;15.40;99.90;;;;;;5045685;28;19921;-66
2022/05/18 01:09:26;;;;;;;;;;;15.30;99.90;;;;;;5045965;28;20212;-67
2022/05/18 01:11:53;;;;;;;;;;;15.20;99.90;;;;;;5045901;28;19921;-66
2022/05/18 01:14:21;;;;;;;;;;;15.20;99.90;;;;;;5059294;28;19943;-67
2022/05/18 01:16:49;;;;;;;;;;;15.20;99.90;;;;;;5062647;28;19943;-66
2022/05/18 01:19:19;;;;;;;;;;;15.20;99.90;;;;;;5066255;28;19927;-67
2022/05/18 01:21:49;;;;;;;;;;;15.10;99.90;;;;;;5065765;28;20207;-67
2022/05/18 01:24:18;;;;;;;;;;;15.10;99.90;;;;;;5066049;28;19927;-66
2022/05/18 01:26:47;;;;;;;;;;;15.00;99.90;;;;;;5047810;28;19943;-67
2022/05/18 01:29:15;;;;;;;;;;;14.80;99.90;;;;;;5045575;28;19927;-67
2022/05/18 01:31:45;;;;;;;;;;;14.70;99.90;;;;;;5061667;28;19929;-66
2022/05/18 01:34:19;;;;;;;;;;;14.60;99.90;;;;;;5063205;28;19935;-66
2022/05/18 01:36:46;;;;;;;;;;;14.50;99.90;;;;;;5065036;28;20227;-67
2022/05/18 01:39:15;;;;;;;;;;;14.50;99.90;;;;;;5065386;28;19928;-66
2022/05/18 01:41:46;;;;;;;;;;;14.50;99.90;;;;;;5065549;28;19927;-66
2022/05/18 01:44:15;;;;;;;;;;;14.50;99.90;;;;;;5063184;28;19935;-66
2022/05/18 01:46:42;;;;;;;;;;;14.60;99.90;;;;;;5052090;28;20107;-66
2022/05/18 01:49:08;;;;;;;;;;;14.60;99.90;;;;;;5045528;28;19943;-66
2022/05/18 01:51:36;;;;;;;;;;;14.60;99.90;;;;;;5045645;28;19921;-67
2022/05/18 01:54:03;;;;;;;;;;;14.60;99.90;;;;;;5045312;28;20116;-66
2022/05/18 01:56:30;;;;;;;;;;;14.70;99.90;;;;;;5044880;28;19925;-67
2022/05/18 01:58:57;;;;;;;;;;;14.70;99.90;;;;;;5050918;28;19921;-66
2022/05/18 02:01:26;;;;;;;;;;;14.70;99.90;;;;;;5064048;28;20274;-66
2022/05/18 02:03:53;;;;;;;;;;;14.70;99.90;;;;;;5065294;28;19920;-66
2022/05/18 02:06:20;;;;;;;;;;;14.70;99.90;;;;;;5064541;28;19925;-67
2022/05/18 02:08:46;;;;;;;;;;;14.70;99.90;;;;;;5064715;28;19936;-66
2022/05/18 02:11:13;;;;;;;;;;;14.70;99.90;;;;;;5065143;28;19921;-66
2022/05/18 02:13:40;;;;;;;;;;;14.70;99.90;;;;;;5064872;28;19927;-66
2022/05/18 02:16:07;;;;;;;;;;;14.70;99.90;;;;;;5064222;28;19929;-67
2022/05/18 02:18:35;;;;;;;;;;;14.70;99.90;;;;;;5064785;28;20204;-66
2022/05/18 02:21:03;;;;;;;;;;;14.70;99.90;;;;;;5064913;28;19920;-67
2022/05/18 02:23:29;;;;;;;;;;;14.70;99.90;;;;;;5064676;28;19921;-66
2022/05/18 02:25:56;;;;;;;;;;;14.50;99.90;;;;;;5063987;28;19943;-67
2022/05/18 02:28:22;;;;;;;;;;;14.60;99.90;;;;;;5064857;28;19967;-66
2022/05/18 02:30:52;;;;;;;;;;;14.60;99.90;;;;;;5061642;28;19928;-67
2022/05/18 02:33:19;;;;;;;;;;;14.60;99.90;;;;;;5064771;28;20117;-68
2022/05/18 02:35:48;;;;;;;;;;;14.60;99.90;;;;;;5043142;28;19956;-67
2022/05/18 02:38:15;;;;;;;;;;;14.60;99.90;;;;;;5044719;28;19921;-67
2022/05/18 02:40:41;;;;;;;;;;;14.50;99.90;;;;;;5044556;28;19921;-66
2022/05/18 02:43:08;;;;;;;;;;;14.50;99.90;;;;;;5044604;28;19928;-67
2022/05/18 02:45:34;;;;;;;;;;;14.50;99.90;;;;;;5043798;28;19928;-66
2022/05/18 02:48:01;;;;;;;;;;;14.50;99.90;;;;;;5044923;28;20125;-67
2022/05/18 02:50:28;;;;;;;;;;;14.50;99.90;;;;;;5061430;28;20235;-66
2022/05/18 02:52:56;;;;;;;;;;;14.50;99.90;;;;;;5063833;28;19927;-66
2022/05/18 02:58:07;;;;;;;;;;;14.50;99.90;;;;;;5064084;28;19962;-67
2022/05/18 03:00:34;;;;;;;;;;;14.60;99.90;;;;;;5063793;28;19983;-68
2022/05/18 03:03:00;;;;;;;;;;;14.60;99.90;;;;;;5063996;28;20208;-66
2022/05/18 03:05:27;;;;;;;;;;;14.60;99.90;;;;;;5063237;28;19943;-67
2022/05/18 03:07:54;;;;;;;;;;;14.60;99.90;;;;;;5063820;28;19935;-68
2022/05/18 03:10:22;;;;;;;;;;;14.70;99.90;;;;;;5063592;28;19924;-67
2022/05/18 03:12:48;;;;;;;;;;;14.60;99.90;;;;;;5056589;28;20147;-66
2022/05/18 03:15:15;;;;;;;;;;;14.60;99.90;;;;;;5042957;28;19936;-66
2022/05/18 03:17:42;;;;;;;;;;;14.60;99.90;;;;;;5043493;28;20230;-66
2022/05/18 03:23:33;;;;;;;;;;;14.60;99.90;;;;;;5043690;28;19992;-66
2022/05/18 03:25:41;;;;;;;;;;;14.50;99.90;;;;;;5042600;28;19966;-66
2022/05/18 03:28:08;;;;;;;;;;;14.50;99.90;;;;;;5043730;28;19929;-66
2022/05/18 03:30:38;;;;;;;;;;;14.50;99.90;;;;;;5040038;28;19927;-67
2022/05/18 03:33:04;;;;;;;;;;;14.40;99.90;;;;;;5057739;28;20116;-66
2022/05/18 03:35:31;;;;;;;;;;;14.40;99.90;;;;;;5061862;28;19936;-66
2022/05/18 03:37:58;;;;;;;;;;;14.40;99.90;;;;;;5062115;28;19928;-67
2022/05/18 03:40:25;;;;;;;;;;;14.30;99.90;;;;;;5063258;28;19921;-66
2022/05/18 03:42:53;;;;;;;;;;;14.30;99.90;;;;;;5062559;28;19927;-67
2022/05/18 03:45:20;;;;;;;;;;;14.40;99.90;;;;;;5062442;28;20226;-66
2022/05/18 03:47:46;;;;;;;;;;;14.40;99.90;;;;;;5063064;28;20205;-68
2022/05/18 03:50:13;;;;;;;;;;;14.40;99.90;;;;;;5062604;28;20155;-66
2022/05/18 03:52:40;;;;;;;;;;;14.50;99.90;;;;;;5059163;28;19935;-66
2022/05/18 03:55:07;;;;;;;;;;;14.50;99.90;;;;;;5043356;28;19921;-66
2022/05/18 03:57:34;;;;;;;;;;;14.50;99.90;;;;;;5042433;28;19921;-67
2022/05/18 04:00:04;;;;;;;;;;;14.50;99.90;;;;;;5053084;28;19951;-67
2022/05/18 04:02:30;;;;;;;;;;;14.60;99.90;;;;;;5059500;28;19959;-67
2022/05/18 04:04:57;;;;;;;;;;;14.60;99.90;;;;;;5061802;28;19924;-66
2022/05/18 04:07:23;;;;;;;;;;;14.60;99.90;;;;;;5061052;28;19921;-66
2022/05/18 04:09:50;;;;;;;;;;;14.60;99.90;;;;;;5062684;28;19927;-66
2022/05/18 04:12:16;;;;;;;;;;;14.60;99.90;;;;;;5062388;28;19921;-66
2022/05/18 04:14:43;;;;;;;;;;;14.60;99.90;;;;;;5061231;28;19929;-66
2022/05/18 04:17:11;;;;;;;;;;;14.60;99.90;;;;;;5042196;28;19928;-67
2022/05/18 04:19:37;;;;;;;;;;;14.50;99.90;;;;;;5042650;28;19929;-66
2022/05/18 04:22:04;;;;;;;;;;;14.60;99.90;;;;;;5043125;28;19921;-66
2022/05/18 04:24:31;;;;;;;;;;;14.60;99.90;;;;;;5060167;28;19921;-64
2022/05/18 04:26:57;;;;;;;;;;;14.60;99.90;;;;;;5044269;28;19928;-64
2022/05/18 04:29:24;;;;;;;;;;;14.60;99.90;;;;;;5044247;28;19925;-66
2022/05/18 04:31:52;;;;;;;;;;;14.60;99.90;;;;;;5045229;28;19928;-64
2022/05/18 04:34:21;;;;;;;;;;;14.60;99.90;;;;;;5043367;28;19943;-64
2022/05/18 04:36:47;;;;;;;;;;;14.70;99.90;;;;;;5049786;28;19963;-65
2022/05/18 04:39:14;;;;;;;;;;;14.70;99.90;;;;;;5063104;28;20120;-65
2022/05/18 04:41:41;;;;;;;;;;;14.70;99.90;;;;;;5060504;28;19929;-64
2022/05/18 04:44:07;;;;;;;;;;;14.70;99.90;;;;;;5062426;28;19921;-65
2022/05/18 04:46:34;;;;;;;;;;;14.70;99.90;;;;;;5062190;28;19921;-64
2022/05/18 04:49:00;;;;;;;;;;;14.70;99.90;;;;;;5061969;28;20231;-65
2022/05/18 04:51:28;;;;;;;;;;;14.70;99.90;;;;;;5043074;28;19921;-65
2022/05/18 04:53:55;;;;;;;;;;;14.70;99.90;;;;;;5042940;28;19921;-65
2022/05/18 04:56:22;;;;;;;;;;;14.70;99.90;;;;;;5042316;28;19928;-65
2022/05/18 04:58:48;;;;;;;;;;;14.80;99.90;;;;;;5042727;28;19996;-64
2022/05/18 05:01:15;;;;;;;;;;;14.80;99.90;;;;;;5043093;28;19921;-65
2022/05/18 05:03:42;;;;;;;;;;;14.90;99.90;;;;;;5043029;28;19984;-64
2022/05/18 05:06:08;;;;;;;;;;;14.90;99.90;;;;;;5042024;28;19927;-68
2022/05/18 05:08:37;;;;;;;;;;;15.00;99.90;;;;;;5048438;28;19920;-63
2022/05/18 05:11:04;;;;;;;;;;;15.00;99.90;;;;;;5061003;28;19921;-68
2022/05/18 05:13:31;;;;;;;;;;;15.00;99.90;;;;;;5045628;28;19921;-63
2022/05/18 05:16:02;;;;;;;;;;;15.00;99.90;;;;;;5043066;28;19921;-63
2022/05/18 05:18:28;;;;;;;;;;;15.00;99.90;;;;;;5047366;28;20108;-63
2022/05/18 05:20:55;;;;;;;;;;;15.10;99.90;;;;;;5048078;28;19927;-62
2022/05/18 05:23:24;;;;;;;;;;;15.10;99.90;;;;;;5052440;28;19975;-63
2022/05/18 05:25:52;;;;;;;;;;;15.20;99.90;;;;;;5067061;28;20208;-63
2022/05/18 05:28:18;;;;;;;;;;;15.20;99.90;;;;;;5067479;28;20119;-63
2022/05/18 05:30:45;;;;;;;;;;;15.20;99.90;;;;;;5058018;23;19925;-63
2022/05/18 05:33:12;;;;;;;;;;;15.20;99.90;;;;;;5046181;28;19921;-63
2022/05/18 05:35:40;;;;;;;;;;;15.20;99.90;;;;;;5043455;28;19921;-66
2022/05/18 05:38:06;;;;;;;;;;;15.20;99.90;;;;;;5045719;28;20111;-66
2022/05/18 05:40:33;;;;;;;;;;;15.30;99.90;;;;;;5045809;28;19921;-65
2022/05/18 05:43:05;;;;;;;;;;;15.30;99.90;;;;;;5046253;28;20227;-66
2022/05/18 05:45:31;;;;;;;;;;;15.30;99.90;;;;;;5043832;28;19928;-67
2022/05/18 05:47:58;;;;;;;;;;;15.40;99.90;;;;;;5046257;28;20139;-67
2022/05/18 05:50:25;;;;;;;;;;;15.40;99.90;;;;;;5045724;28;20220;-66
2022/05/18 05:52:52;;;;;;;;;;;15.50;99.90;;;;;;5043117;28;19921;-67
2022/05/18 05:55:19;;;;;;;;;;;15.60;99.90;;;;;;5044112;28;20151;-67
2022/05/18 05:57:46;;;;;;;;;;;15.70;99.90;;;;;;5045913;28;19921;-67
2022/05/18 06:00:14;;;;;;;;;;;15.90;99.90;;;;;;5045833;28;20204;-67
2022/05/18 06:02:41;;;;;;;;;;;16.10;99.90;;;;;;5045442;28;19921;-67
2022/05/18 06:05:08;;;;;;;;;;;16.20;99.90;;;;;;5044017;28;19928;-66
2022/05/18 06:07:34;;;;;;;;;;;16.30;99.90;;;;;;5045220;28;19929;-67
2022/05/18 06:10:01;;;;;;;;;;;16.40;99.90;;;;;;5045082;28;19929;-66
2022/05/18 06:12:28;;;;;;;;;;;16.50;99.90;;;;;;5045418;28;19925;-66
2022/05/18 06:14:57;;;;;;;;;;;16.60;99.90;;;;;;5045033;28;19967;-66
2022/05/18 06:17:24;;;;;;;;;;;16.80;99.90;;;;;;5044772;28;19996;-66
2022/05/18 06:19:51;;;;;;;;;;;16.90;99.90;;;;;;5045279;28;19928;-66
2022/05/18 06:22:18;;;;;;;;;;;17.00;99.90;;;;;;5045108;28;19921;-66
2022/05/18 06:24:47;;;;;;;;;;;17.10;99.90;;;;;;5045456;28;19936;-66
2022/05/18 06:27:14;;;;;;;;;;;17.20;99.90;;;;;;5044341;28;20208;-66
2022/05/18 06:29:40;;;;;;;;;;;17.40;99.90;;;;;;5043946;28;19921;-66
2022/05/18 06:32:07;;;;;;;;;;;17.50;99.90;;;;;;5045080;28;19928;-66
2022/05/18 06:34:35;;;;;;;;;;;17.60;99.90;;;;;;5045074;28;19928;-67
2022/05/18 06:37:03;;;;;;;;;;;17.70;99.90;;;;;;5043693;28;19929;-67
2022/05/18 06:39:29;;;;;;;;;;;17.80;99.90;;;;;;5044713;28;19925;-67
2022/05/18 06:41:58;;;;;;;;;;;17.90;99.90;;;;;;5044683;28;20226;-67
2022/05/18 06:44:24;;;;;;;;;;;18.00;99.90;;;;;;5044812;28;19921;-67
2022/05/18 06:46:51;;;;;;;;;;;18.00;99.90;;;;;;5044269;28;19925;-68
2022/05/18 06:49:19;;;;;;;;;;;18.10;99.90;;;;;;5044888;28;19921;-67
2022/05/18 06:51:47;;;;;;;;;;;18.10;99.90;;;;;;5044893;28;19921;-67
2022/05/18 06:54:14;;;;;;;;;;;18.10;99.90;;;;;;5044715;28;19927;-66
2022/05/18 06:56:42;;;;;;;;;;;18.20;99.90;;;;;;5044210;28;19921;-66
2022/05/18 06:59:09;;;;;;;;;;;18.30;99.90;;;;;;5044699;28;19928;-66
2022/05/18 07:01:38;;;;;;;;;;;18.30;99.90;;;;;;5041443;28;19931;-66
2022/05/18 07:04:05;;;;;;;;;;;18.40;99.90;;;;;;5044778;28;19921;-66
2022/05/18 07:06:33;;;;;;;;;;;18.50;99.90;;;;;;5043653;28;19921;-68
2022/05/18 07:09:01;;;;;;;;;;;18.60;99.90;;;;;;5044645;28;19921;-67
2022/05/18 07:11:28;;;;;;;;;;;18.60;99.90;;;;;;5044549;28;19928;-66
2022/05/18 07:13:56;;;;;;;;;;;18.70;99.90;;;;;;5044382;28;19921;-66
2022/05/18 07:16:23;;;;;;;;;;;18.70;99.90;;;;;;5043740;28;20171;-66
2022/05/18 07:18:51;;;;;;;;;;;18.80;99.90;;;;;;5044289;28;19952;-66
2022/05/18 07:21:18;;;;;;;;;;;18.90;99.90;;;;;;5044487;28;19991;-66
2022/05/18 07:23:45;;;;;;;;;;;19.00;99.90;;;;;;5050795;28;19975;-66
2022/05/18 07:26:13;;;;;;;;;;;19.20;99.90;;;;;;5060275;28;19936;-66
2022/05/18 07:28:40;;;;;;;;;;;19.20;99.90;;;;;;5044309;28;19920;-66
2022/05/18 07:31:07;;;;;;;;;;;19.30;99.90;;;;;;5036474;28;20249;-66
2022/05/18 07:33:34;;;;;;;;;;;19.40;99.90;;;;;;5040710;28;20099;-67
2022/05/18 07:36:00;;;;;;;;;;;19.40;99.90;;;;;;5043314;28;19928;-66
2022/05/18 07:38:29;;;;;;;;;;;19.50;99.90;;;;;;5043941;28;19921;-66
2022/05/18 07:40:55;;;;;;;;;;;19.60;99.90;;;;;;5026275;28;19922;-66
2022/05/18 07:43:24;;;;;;;;;;;19.70;99.90;;;;;;5024023;28;20205;-66
2022/05/18 07:45:51;;;;;;;;;;;19.80;99.90;;;;;;5023291;28;19944;-66
2022/05/18 07:48:18;;;;;;;;;;;19.80;99.90;;;;;;5023837;28;20220;-67
2022/05/18 07:50:45;;;;;;;;;;;20.00;99.90;;;;;;5023873;28;19927;-66
2022/05/18 07:53:12;;;;;;;;;;;20.10;99.90;;;;;;5024094;28;20201;-66
2022/05/18 07:55:39;;;;;;;;;;;20.10;99.90;;;;;;5023161;28;19921;-67
2022/05/18 07:58:06;;;;;;;;;;;20.20;99.90;;;;;;5042350;28;19920;-67
2022/05/18 08:00:35;;;;;;;;;;;20.20;99.90;;;;;;5040750;28;19968;-66
2022/05/18 08:03:02;;;;;;;;;;;20.20;99.90;;;;;;5041429;28;19984;-66
2022/05/18 08:05:30;;;;;;;;;;;20.30;99.90;;;;;;5042121;28;19929;-66
2022/05/18 08:07:57;;;;;;;;;;;20.30;99.90;;;;;;5043556;28;19927;-66
2022/05/18 08:15:54;;;;;;;;;;;20.50;99.90;;;;;;5042603;28;20373;-66
2022/05/18 08:18:20;;;;;;;;;;;20.50;99.90;;;;;;5043535;28;19925;-66
2022/05/18 08:20:48;;;;;;;;;;;20.50;99.90;;;;;;5043509;28;19921;-66
2022/05/18 08:23:16;;;;;;;;;;;20.50;99.90;;;;;;5039332;28;19925;-66
2022/05/18 08:25:43;;;;;;;;;;;20.50;99.90;;;;;;5042633;28;19921;-66
2022/05/18 08:28:10;;;;;;;;;;;20.50;99.90;;;;;;5043428;28;19921;-66
2022/05/18 08:30:39;;;;;;;;;;;20.60;99.90;;;;;;5042856;28;20208;-66
2022/05/18 08:33:07;;;;;;;;;;;20.70;99.90;;;;;;5043435;28;19921;-66
2022/05/18 08:35:33;;;;;;;;;;;20.80;99.90;;;;;;5042676;28;19964;-66
2022/05/18 08:38:00;;;;;;;;;;;20.90;99.90;;;;;;5043412;28;19921;-66
2022/05/18 08:40:33;;;;;;;;;;;21.10;99.90;;;;;;5043058;28;19921;-66
2022/05/18 08:43:01;;;;;;;;;;;21.20;99.90;;;;;;5043440;28;20112;-66
2022/05/18 08:45:30;;;;;;;;;;;21.40;99.90;;;;;;5042342;28;19921;-66
2022/05/18 08:48:05;;;;;;;;;;;21.40;99.90;;;;;;5043193;28;19921;-66
2022/05/18 08:50:34;;;;;;;;;;;21.50;99.90;;;;;;5042892;28;20113;-67
2022/05/18 08:53:07;;;;;;;;;;;21.60;99.90;;;;;;5046715;28;19925;-66
2022/05/18 08:55:41;;;;;;;;;;;21.60;99.90;;;;;;5046081;28;20213;-66
2022/05/18 08:58:10;;;;;;;;;;;21.80;99.90;;;;;;5046684;28;20243;-66
2022/05/18 09:00:37;;;;;;;;;;;21.90;99.90;;;;;;5044167;28;19921;-66
2022/05/18 09:03:05;;;;;;;;;;;21.90;99.90;;;;;;5045431;28;19943;-65
2022/05/18 09:05:35;;;;;;;;;;;22.00;99.90;;;;;;5046149;28;19921;-66
2022/05/18 09:08:04;;;;;;;;;;;22.00;99.90;;;;;;5046796;28;19943;-66
2022/05/18 09:10:33;;;;;;;;;;;22.00;99.90;;;;;;5046904;28;19928;-66
2022/05/18 09:13:00;;;;;;;;;;;22.10;99.90;;;;;;5046674;28;20339;-66
2022/05/18 09:15:34;;;;;;;;;;;22.10;99.90;;;;;;5046076;28;19948;-66
2022/05/18 09:18:03;;;;;;;;;;;22.10;99.90;;;;;;5046603;28;20175;-66
2022/05/18 09:20:36;;;;;;;;;;;22.10;99.90;;;;;;5046447;28;19921;-66
2022/05/18 09:23:21;;;;;;;;;;;22.10;99.90;;;;;;5042709;28;19968;-66
2022/05/18 09:25:55;;;;;;;;;;;22.10;99.90;;;;;;5044101;28;19921;-66
2022/05/18 09:28:28;;;;;;;;;;;22.20;99.90;;;;;;5044571;28;19928;-66
2022/05/18 09:31:01;;;;;;;;;;;22.30;99.90;;;;;;5039706;28;19927;-66
2022/05/18 09:33:34;;;;;;;;;;;22.30;99.90;;;;;;5042426;28;20243;-66
2022/05/18 09:36:17;;;;;;;;;;;22.30;99.90;;;;;;5026018;28;19921;-66
2022/05/18 09:38:47;;;;;;;;;;;22.40;99.90;;;;;;5036289;28;20232;-66
2022/05/18 09:41:17;;;;;;;;;;;22.50;99.90;;;;;;5026474;28;19928;-66
2022/05/18 09:43:47;;;;;;;;;;;22.60;99.90;;;;;;5026459;28;19921;-66
2022/05/18 09:46:17;;;;;;;;;;;22.80;99.90;;;;;;5034014;28;19929;-66
2022/05/18 09:48:48;;;;;;;;;;;22.90;99.90;;;;;;5027132;28;19928;-66
2022/05/18 09:51:15;;;;;;;;;;;23.10;99.90;;;;;;5030858;28;19928;-67
2022/05/18 09:53:42;;;;;;;;;;;23.20;99.90;;;;;;5046162;28;19976;-65
2022/05/18 09:56:10;;;;;;;;;;;23.30;99.90;;;;;;5045189;28;20163;-66
2022/05/18 09:58:40;;;;;;;;;;;23.50;99.90;;;;;;5045768;28;20217;-66
2022/05/18 10:09:24;;;;;;;;;;;23.40;99.90;;;;;;5025789;28;19963;-66
2022/05/18 10:11:51;;;;;;;;;;;23.60;99.90;;;;;;5025510;28;20303;-66
2022/05/18 10:14:29;;;;;;;;;;;23.80;99.90;;;;;;5030458;28;19922;-67
2022/05/18 10:17:01;;;;;;;;;;;23.90;99.90;;;;;;5044866;28;19943;-66
2022/05/18 10:19:30;;;;;;;;;;;24.00;99.90;;;;;;5045438;28;19921;-67
2022/05/18 10:21:59;;;;;;;;;;;24.10;99.90;;;;;;5045373;28;20109;-67
2022/05/18 10:24:28;;;;;;;;;;;24.30;99.90;;;;;;5049032;28;19921;-66
2022/05/18 10:27:10;;;;;;;;;;;24.20;99.90;;;;;;5044533;28;19927;-67
2022/05/18 10:29:38;;;;;;;;;;;24.20;99.90;;;;;;5042407;28;20112;-67
2022/05/18 10:32:06;;;;;;;;;;;24.30;99.90;;;;;;5044031;28;19921;-66
2022/05/18 10:34:33;;;;;;;;;;;24.30;99.90;;;;;;5043365;28;19921;-67
2022/05/18 10:37:01;;;;;;;;;;;24.40;99.90;;;;;;5042987;28;19921;-67
2022/05/18 10:39:37;;;;;;;;;;;24.60;99.90;;;;;;5043964;28;19921;-67
2022/05/18 10:42:09;;;;;;;;;;;24.80;99.90;;;;;;5044889;28;20164;-67
2022/05/18 10:44:36;;;;;;;;;;;25.00;99.90;;;;;;5045139;28;19925;-68
2022/05/18 10:47:21;;;;;;;;;;;25.10;99.90;;;;;;5040967;28;20094;-67
2022/05/18 10:49:48;;;;;;;;;;;25.20;99.90;;;;;;5045022;28;19928;-67
2022/05/18 10:52:18;;;;;;;;;;;25.40;99.90;;;;;;5043999;28;19937;-67
2022/05/18 10:54:55;;;;;;;;;;;25.60;99.90;;;;;;5044644;28;19929;-67
2022/05/18 10:57:28;;;;;;;;;;;25.60;99.90;;;;;;5044187;28;19921;-67
2022/05/18 10:59:58;;;;;;;;;;;25.60;99.90;;;;;;5044589;28;19927;-67
2022/05/18 11:02:29;;;;;;;;;;;25.70;99.90;;;;;;5040207;28;19936;-67
2022/05/18 11:04:59;;;;;;;;;;;25.80;99.90;;;;;;5054527;28;19980;-67
2022/05/18 11:07:28;;;;;;;;;;;25.90;99.90;;;;;;5045961;28;19921;-68
2022/05/18 11:09:54;;;;;;;;;;;26.00;99.90;;;;;;5041469;28;19927;-67
2022/05/18 11:12:31;;;;;;;;;;;25.80;99.90;;;;;;5030847;28;19921;-67
2022/05/18 11:14:59;;;;;;;;;;;25.50;99.90;;;;;;5043909;28;19921;-67
2022/05/18 11:17:34;;;;;;;;;;;25.60;99.90;;;;;;5042036;28;19921;-67
2022/05/18 11:20:06;;;;;;;;;;;25.80;99.90;;;;;;5044375;28;19925;-68
2022/05/18 11:22:35;;;;;;;;;;;26.00;99.90;;;;;;5044026;28;19921;-67
2022/05/18 11:25:14;;;;;;;;;;;25.90;99.90;;;;;;5024426;28;19927;-66
2022/05/18 11:27:45;;;;;;;;;;;26.10;99.90;;;;;;5024554;28;19921;-67
2022/05/18 11:30:14;;;;;;;;;;;26.50;99.90;;;;;;5054179;23;19925;-92
2022/05/18 11:32:48;;;;;;;;;;;26.40;99.90;;;;;;5061072;28;19984;-93
2022/05/18 11:35:34;;;;;;;;;;;26.20;99.90;;;;;;5065706;28;19963;-92
2022/05/18 11:38:13;;;;;;;;;;;26.00;99.90;;;;;;5057902;28;19945;-93
2022/05/18 11:40:42;;;;;;;;;;;25.90;99.90;;;;;;5066223;28;19976;-93
2022/05/18 11:43:28;;;;;;;;;;;26.20;99.90;;;;;;5082013;23;19963;-71
2022/05/18 11:46:01;;;;;;;;;;;26.50;99.90;;;;;;5062400;28;19920;-72
2022/05/18 11:48:32;;;;;;;;;;;26.80;99.90;;;;;;5061271;28;19928;-70
2022/05/18 11:51:02;;;;;;;;;;;27.00;99.90;;;;;;5063309;28;20132;-70
2022/05/18 11:53:33;;;;;;;;;;;27.00;99.90;;;;;;5057870;28;19933;-70
2022/05/18 11:56:08;;;;;;;;;;;26.80;99.90;;;;;;5043120;28;19921;-70
2022/05/18 11:58:49;;;;;;;;;;;26.80;99.90;;;;;;5048751;28;19927;-71
2022/05/18 12:01:19;;;;;;;;;;;27.00;99.90;;;;;;5043719;28;19945;-70
2022/05/18 12:03:55;;;;;;;;;;;26.90;99.90;;;;;;5046067;28;19928;-70
2022/05/18 12:06:29;;;;;;;;;;;26.70;99.90;;;;;;5044727;28;19921;-70
2022/05/18 12:09:02;;;;;;;;;;;26.70;99.90;;;;;;5044410;28;19928;-70
2022/05/18 12:11:34;;;;;;;;;;;26.70;99.90;;;;;;5057640;28;19935;-71
2022/05/18 12:14:11;;;;;;;;;;;27.20;99.90;;;;;;5048871;28;19927;-68
2022/05/18 12:16:41;;;;;;;;;;;27.40;99.90;;;;;;5060070;28;19935;-69
2022/05/18 12:19:14;;;;;;;;;;;27.40;99.90;;;;;;5063196;28;20115;-68
2022/05/18 12:21:42;;;;;;;;;;;27.30;99.90;;;;;;5045393;28;20220;-68
2022/05/18 12:24:11;;;;;;;;;;;27.30;99.90;;;;;;5056929;28;19929;-72
2022/05/18 12:26:39;;;;;;;;;;;27.20;99.90;;;;;;5061652;28;20236;-71
2022/05/18 12:29:07;;;;;;;;;;;27.30;99.90;;;;;;5062669;28;19952;-69
2022/05/18 12:31:34;;;;;;;;;;;27.50;99.90;;;;;;5058174;28;19940;-71
2022/05/18 12:34:04;;;;;;;;;;;27.70;99.90;;;;;;5042913;28;19928;-71
2022/05/18 12:36:34;;;;;;;;;;;28.00;99.90;;;;;;5060342;28;20112;-70
2022/05/18 12:39:08;;;;;;;;;;;28.40;99.70;;;;;;5063096;28;19927;-71
2022/05/18 12:41:38;;;;;;;;;;;28.50;99.50;;;;;;5061944;28;19921;-70
2022/05/18 12:44:07;;;;;;;;;;;28.70;98.30;;;;;;5063028;28;19928;-70
2022/05/18 12:46:37;;;;;;;;;;;28.80;98.70;;;;;;5062332;28;19929;-69
2022/05/18 12:49:06;;;;;;;;;;;28.50;98.10;;;;;;5054977;28;19925;-70
2022/05/18 12:51:37;;;;;;;;;;;28.00;98.10;;;;;;5043021;28;19944;-70
2022/05/18 12:54:09;;;;;;;;;;;28.00;99.10;;;;;;5049550;28;19935;-70
2022/05/18 12:56:53;;;;;;;;;;;28.10;97.60;;;;;;5062602;28;19927;-70
2022/05/18 12:59:21;;;;;;;;;;;28.50;97.40;;;;;;5047475;28;19921;-69
2022/05/18 13:01:50;;;;;;;;;;;28.60;97.70;;;;;;5042765;28;19992;-69
2022/05/18 13:04:37;;;;;;;;;;;28.70;96.50;;;;;;5042654;28;19925;-69
2022/05/18 13:07:20;;;;;;;;;;;28.50;96.30;;;;;;5056955;28;20147;-69
2022/05/18 13:09:47;;;;;;;;;;;27.90;96.90;;;;;;5047034;28;20190;-69
2022/05/18 13:12:36;;;;;;;;;;;28.00;97.20;;;;;;5062685;28;19927;-70
2022/05/18 13:15:04;;;;;;;;;;;28.30;98.00;;;;;;5042919;28;19945;-71
2022/05/18 13:17:48;;;;;;;;;;;28.30;97.60;;;;;;5046912;28;20084;-71
2022/05/18 13:20:31;;;;;;;;;;;28.60;97.60;;;;;;5041339;28;19929;-69
2022/05/18 13:23:42;;;;;;;;;;;28.30;96.00;;;;;;5053525;28;19928;-71
2022/05/18 13:26:22;;;;;;;;;;;28.00;97.20;;;;;;5058338;28;20140;-68
2022/05/18 13:28:50;;;;;;;;;;;27.80;97.10;;;;;;5061991;28;19921;-68
2022/05/18 13:31:17;;;;;;;;;;;27.80;98.00;;;;;;5059706;28;19921;-69
2022/05/18 13:33:48;;;;;;;;;;;28.00;96.90;;;;;;5062288;28;19935;-69
2022/05/18 13:36:15;;;;;;;;;;;27.80;96.40;;;;;;5051668;28;19921;-68
2022/05/18 13:38:43;;;;;;;;;;;27.50;97.60;;;;;;5061966;28;19932;-68
2022/05/18 13:41:11;;;;;;;;;;;27.30;97.90;;;;;;5065008;28;19925;-68
2022/05/18 13:43:41;;;;;;;;;;;27.10;97.60;;;;;;5066026;28;19956;-68
2022/05/18 13:46:13;;;;;;;;;;;26.80;97.40;;;;;;5065096;28;19947;-68
2022/05/18 13:48:41;;;;;;;;;;;26.60;98.20;;;;;;5065526;28;20650;-67
2022/05/18 13:51:09;;;;;;;;;;;26.70;98.20;;;;;;5064284;28;19921;-68
2022/05/18 13:53:38;;;;;;;;;;;27.10;98.70;;;;;;5057246;28;19955;-68
2022/05/18 13:56:07;;;;;;;;;;;27.60;98.50;;;;;;5064941;28;19927;-68
2022/05/18 13:58:35;;;;;;;;;;;28.00;97.20;;;;;;5066132;28;19921;-67
2022/05/18 14:01:18;;;;;;;;;;;28.50;97.70;;;;;;5062233;28;19920;-67
2022/05/18 14:03:46;;;;;;;;;;;29.00;96.90;;;;;;5046679;28;19928;-69
2022/05/18 14:06:13;;;;;;;;;;;29.50;96.30;;;;;;5045588;28;19922;-68
2022/05/18 14:08:59;;;;;;;;;;;29.60;95.20;;;;;;5052455;28;20115;-68
2022/05/18 14:11:28;;;;;;;;;;;30.00;96.10;;;;;;5064154;28;19927;-69
2022/05/18 14:13:57;;;;;;;;;;;30.40;94.20;;;;;;5063851;28;19927;-68
2022/05/18 14:16:26;;;;;;;;;;;30.70;93.80;;;;;;5064839;28;20203;-68
2022/05/18 14:18:54;;;;;;;;;;;31.10;93.30;;;;;;5065951;28;19928;-68
2022/05/18 14:21:21;;;;;;;;;;;31.40;92.80;;;;;;5063972;28;19928;-68
2022/05/18 14:23:51;;;;;;;;;;;31.60;91.70;;;;;;5065421;28;19925;-68
2022/05/18 14:26:20;;;;;;;;;;;31.70;90.80;;;;;;5064882;28;19920;-68
2022/05/18 14:28:50;;;;;;;;;;;31.50;90.50;;;;;;5065779;28;19944;-68
2022/05/18 14:31:19;;;;;;;;;;;31.50;90.30;;;;;;5065313;28;19921;-69
2022/05/18 14:33:48;;;;;;;;;;;31.30;90.20;;;;;;5065239;28;19920;-69
2022/05/18 14:36:21;;;;;;;;;;;31.20;90.70;;;;;;5064618;28;19939;-69
2022/05/18 14:38:50;;;;;;;;;;;31.30;91.40;;;;;;5065553;28;19925;-69
2022/05/18 14:41:17;;;;;;;;;;;31.30;89.40;;;;;;5070659;28;19928;-70
2022/05/18 14:43:45;;;;;;;;;;;31.10;90.20;;;;;;5072484;28;19921;-69
2022/05/18 14:46:21;;;;;;;;;;;31.10;90.30;;;;;;5065896;28;20230;-69